Time;durP1;ratioP1;P1;durP2;ratioP2;P2;SDS_P1;SDS_P2;PMS_P1;PMS_P2;Temp;Humidity;BMP_temperature;BMP_pressure;BME280_temperature;BME280_humidity;BME280_pressure;Samples;Min_cycle;Max_cycle;Signal;HPM_P1;HPM_P2
2022/03/18 00:02:13;;;;;;;19.88;7.18;;;-0.20;99.90;;;;;;5053488;28;20048;-47
2022/03/18 00:04:39;;;;;;;16.40;6.18;;;-0.10;99.90;;;;;;5071107;28;20040;-47
2022/03/18 00:07:04;;;;;;;19.33;6.85;;;-0.10;99.90;;;;;;5071225;28;20479;-46
2022/03/18 00:09:31;;;;;;;20.75;7.25;;;;;;;;;;5071356;28;20047;-46
2022/03/18 00:11:57;;;;;;;16.85;7.15;;;;;;;;;;5070724;28;20055;-46
2022/03/18 00:14:23;;;;;;;17.92;7.07;;;-0.50;99.90;;;;;;5070927;28;20421;-46
2022/03/18 00:16:49;;;;;;;23.90;7.65;;;-0.40;99.90;;;;;;5070384;28;20040;-47
2022/03/18 00:19:15;;;;;;;28.25;7.88;;;-0.30;99.90;;;;;;5070828;28;20048;-47
2022/03/18 00:21:41;;;;;;;27.42;7.60;;;-0.30;99.90;;;;;;5070525;28;20111;-47
2022/03/18 00:24:07;;;;;;;17.48;7.57;;;-0.30;99.90;;;;;;5070121;28;20593;-46
2022/03/18 00:26:32;;;;;;;16.70;7.20;;;-0.50;99.90;;;;;;5070561;28;20094;-46
2022/03/18 00:28:58;;;;;;;20.52;8.07;;;-0.30;99.90;;;;;;5070195;28;20054;-46
2022/03/18 00:31:24;;;;;;;29.08;7.65;;;-0.30;99.90;;;;;;5070479;28;20096;-47
2022/03/18 00:33:50;;;;;;;16.15;6.47;;;-0.40;99.90;;;;;;5070283;28;20036;-46
2022/03/18 00:36:16;;;;;;;20.42;8.40;;;-0.20;99.90;;;;;;5070583;28;20409;-47
2022/03/18 00:38:42;;;;;;;23.55;7.15;;;-0.40;99.90;;;;;;5070388;28;20044;-46
2022/03/18 00:41:08;;;;;;;21.98;8.15;;;-0.50;99.90;;;;;;5070436;28;20174;-46
2022/03/18 00:43:34;;;;;;;17.60;6.78;;;-0.20;99.90;;;;;;5070174;28;20040;-48
2022/03/18 00:46:00;;;;;;;19.90;7.25;;;-0.40;99.90;;;;;;5070232;28;20036;-47
2022/03/18 00:53:54;;;;;;;17.73;6.78;;;-0.60;99.90;;;;;;5050088;28;20099;-46
2022/03/18 00:56:20;;;;;;;22.83;7.60;;;-0.50;99.90;;;;;;5050127;28;20041;-46
2022/03/18 00:58:46;;;;;;;28.00;7.60;;;-0.40;99.90;;;;;;5049993;28;20075;-47
2022/03/18 01:01:12;;;;;;;20.92;7.72;;;-0.40;99.90;;;;;;5050268;28;20036;-46
2022/03/18 01:03:38;;;;;;;27.42;9.30;;;-0.20;99.90;;;;;;5049700;28;20386;-46
2022/03/18 01:06:04;;;;;;;26.95;9.07;;;-0.30;99.90;;;;;;5049767;28;20398;-48
2022/03/18 01:08:30;;;;;;;28.70;10.05;;;-0.20;99.90;;;;;;5049588;28;20718;-48
2022/03/18 01:10:56;;;;;;;26.70;10.13;;;-0.20;99.90;;;;;;5031472;28;20045;-47
2022/03/18 01:13:22;;;;;;;31.58;10.68;;;-0.10;99.90;;;;;;5049694;28;20047;-48
2022/03/18 01:15:49;;;;;;;25.17;10.30;;;-0.10;99.90;;;;;;5049571;28;20399;-48
2022/03/18 01:18:15;;;;;;;33.58;10.40;;;-0.10;99.90;;;;;;5049767;28;20422;-47
2022/03/18 01:20:41;;;;;;;30.92;10.48;;;-0.10;99.90;;;;;;5049944;28;20048;-48
2022/03/18 01:23:06;;;;;;;37.05;12.00;;;-0.10;99.90;;;;;;5049720;28;20395;-47
2022/03/18 01:25:34;;;;;;;32.00;11.30;;;-0.10;99.90;;;;;;5049328;28;20051;-45
2022/03/18 01:28:01;;;;;;;30.48;11.30;;;1.00;99.90;;;;;;5049483;28;20447;-46
2022/03/18 01:30:32;;;;;;;28.88;11.43;;;-0.20;99.90;;;;;;5049716;28;20070;-46
2022/03/18 01:33:00;;;;;;;27.13;11.48;;;-0.30;99.90;;;;;;5031141;28;20052;-45
2022/03/18 01:35:27;;;;;;;32.35;12.00;;;-0.30;99.90;;;;;;5049508;28;20391;-47
2022/03/18 01:37:52;;;;;;;31.25;12.50;;;-0.30;99.90;;;;;;5048603;28;20152;-46
2022/03/18 01:40:18;;;;;;;32.38;11.70;;;-0.40;99.90;;;;;;5049411;28;20190;-46
2022/03/18 01:42:45;;;;;;;34.38;13.07;;;-0.40;99.90;;;;;;5049059;28;20029;-46
2022/03/18 01:45:11;;;;;;;35.38;12.50;;;-0.40;99.90;;;;;;5049040;28;20091;-47
2022/03/18 01:47:42;;;;;;;31.42;13.48;;;-0.40;99.90;;;;;;5049233;28;20044;-48
2022/03/18 01:50:10;;;;;;;28.33;11.85;;;-0.40;99.90;;;;;;5049216;28;20701;-46
2022/03/18 01:52:36;;;;;;;20.15;10.23;;;-0.50;99.90;;;;;;5059250;28;20051;-46
2022/03/18 01:55:03;;;;;;;26.15;11.27;;;-0.50;99.90;;;;;;5069285;28;20056;-49
2022/03/18 01:57:28;;;;;;;35.70;13.82;;;-0.50;99.90;;;;;;5069645;28;20380;-47
2022/03/18 01:59:54;;;;;;;36.70;15.07;;;-0.50;99.90;;;;;;5069267;28;20147;-47
2022/03/18 02:02:21;;;;;;;45.50;16.02;;;-0.40;99.90;;;;;;5069431;28;20513;-46
2022/03/18 02:04:47;;;;;;;53.63;19.02;;;-0.20;99.90;;;;;;5069279;28;20036;-48
2022/03/18 02:07:13;;;;;;;30.55;14.00;;;-0.40;99.90;;;;;;5069055;28;20490;-46
2022/03/18 02:09:40;;;;;;;40.33;15.65;;;-0.30;99.90;;;;;;5068973;28;20036;-46
2022/03/18 02:12:07;;;;;;;34.97;14.43;;;1.80;99.90;;;;;;5068809;28;20094;-46
2022/03/18 02:14:45;;;;;;;39.22;15.85;;;-0.20;99.90;;;;;;5069052;28;20429;-47
2022/03/18 02:17:12;;;;;;;36.58;14.98;;;-0.30;99.90;;;;;;5050904;28;20040;-46
2022/03/18 02:19:38;;;;;;;30.55;13.18;;;-0.30;99.90;;;;;;5050752;28;20474;-45
2022/03/18 02:22:13;;;;;;;50.90;16.70;;;-0.30;99.90;;;;;;5068890;28;20131;-47
2022/03/18 02:24:40;;;;;;;40.85;15.65;;;-0.30;99.90;;;;;;5069302;28;20059;-47
2022/03/18 02:27:07;;;;;;;37.67;16.35;;;-0.20;99.90;;;;;;5068845;28;20044;-45
2022/03/18 02:29:33;;;;;;;47.33;16.60;;;-0.40;99.90;;;;;;5068780;28;20052;-47
2022/03/18 02:32:00;;;;;;;44.80;16.15;;;-0.40;99.90;;;;;;5069109;28;20170;-46
2022/03/18 02:34:27;;;;;;;47.40;15.25;;;-0.50;99.90;;;;;;5069134;28;20040;-46
2022/03/18 02:36:53;;;;;;;31.42;14.25;;;-0.50;99.90;;;;;;5068973;28;20382;-46
2022/03/18 02:39:18;;;;;;;44.88;15.75;;;-0.60;99.90;;;;;;5068452;28;20047;-47
2022/03/18 02:41:44;;;;;;;35.53;16.02;;;-0.50;99.90;;;;;;5068689;28;20102;-46
2022/03/18 02:44:10;;;;;;;36.13;14.10;;;-0.50;99.90;;;;;;5068638;28;20131;-47
2022/03/18 02:46:36;;;;;;;35.58;14.73;;;-0.60;99.90;;;;;;5068715;28;20051;-47
2022/03/18 02:49:03;;;;;;;46.22;16.77;;;-0.60;99.90;;;;;;5053485;28;20398;-46
2022/03/18 02:51:29;;;;;;;33.92;14.07;;;-0.60;99.90;;;;;;5072430;28;20036;-45
2022/03/18 02:53:55;;;;;;;35.10;13.82;;;-0.60;99.90;;;;;;5072336;28;20044;-47
2022/03/18 02:56:21;;;;;;;37.22;13.95;;;-0.60;99.90;;;;;;5072335;28;20051;-49
2022/03/18 02:58:47;;;;;;;33.60;13.68;;;-0.50;99.90;;;;;;5072330;28;20045;-46
2022/03/18 03:01:13;;;;;;;32.47;14.60;;;-0.30;99.90;;;;;;5072277;28;20423;-47
2022/03/18 03:03:38;;;;;;;44.03;16.20;;;-0.60;99.90;;;;;;5054132;28;20462;-47
2022/03/18 03:08:49;;;;;;;30.08;14.23;;;-0.40;99.90;;;;;;5072044;28;20426;-47
2022/03/18 03:11:14;;;;;;;49.40;16.10;;;-0.60;99.90;;;;;;5071536;28;20052;-46
2022/03/18 03:13:40;;;;;;;42.40;15.38;;;-0.60;99.90;;;;;;5072304;28;20127;-45
2022/03/18 03:16:06;;;;;;;34.08;14.38;;;-0.50;99.90;;;;;;5071656;28;20091;-46
2022/03/18 03:18:32;;;;;;;30.02;13.85;;;-0.60;99.90;;;;;;5072009;28;20072;-46
2022/03/18 03:20:58;;;;;;;42.58;15.27;;;-0.60;99.90;;;;;;5071862;28;20048;-46
2022/03/18 03:23:25;;;;;;;39.13;16.42;;;-0.60;99.90;;;;;;5071507;28;20072;-46
2022/03/18 03:25:52;;;;;;;42.92;15.88;;;-0.40;99.90;;;;;;5072019;28;20115;-45
2022/03/18 03:28:17;;;;;;;42.28;16.05;;;-0.50;99.90;;;;;;5071844;28;20094;-46
2022/03/18 03:30:44;;;;;;;38.70;15.30;;;-0.50;99.90;;;;;;5071977;28;20044;-47
2022/03/18 03:33:10;;;;;;;44.80;18.65;;;-0.30;99.90;;;;;;5071676;28;20040;-46
2022/03/18 03:35:36;;;;;;;40.80;17.35;;;-0.40;99.90;;;;;;5071826;28;20063;-47
2022/03/18 03:38:02;;;;;;;44.40;17.65;;;-0.30;99.90;;;;;;5071667;28;20063;-48
2022/03/18 03:40:30;;;;;;;40.85;17.40;;;-0.40;99.90;;;;;;5071161;28;20052;-47
2022/03/18 03:42:55;;;;;;;41.67;16.33;;;-0.50;99.90;;;;;;5071389;28;20136;-47
2022/03/18 03:45:21;;;;;;;42.65;16.73;;;-0.40;99.90;;;;;;5071419;28;20128;-46
2022/03/18 03:47:47;;;;;;;43.20;17.83;;;-0.40;99.90;;;;;;5071313;28;20039;-46
2022/03/18 03:50:13;;;;;;;43.28;18.42;;;-0.20;99.90;;;;;;5070928;28;20052;-46
2022/03/18 03:52:39;;;;;;;45.80;17.38;;;-0.10;99.90;;;;;;5071113;28;20057;-46
2022/03/18 03:55:07;;;;;;;48.50;19.20;;;-0.20;99.90;;;;;;5071371;28;20130;-46
2022/03/18 03:57:33;;;;;;;36.67;18.00;;;-0.30;99.90;;;;;;5071380;28;20045;-45
2022/03/18 03:59:59;;;;;;;41.33;17.08;;;-0.10;99.90;;;;;;5070537;28;20040;-46
2022/03/18 04:02:27;;;;;;;36.40;16.13;;;-0.20;99.90;;;;;;5071103;28;20463;-46
2022/03/18 04:04:53;;;;;;;34.03;14.10;;;-0.20;99.90;;;;;;5071199;28;20040;-46
2022/03/18 04:07:19;;;;;;;39.45;15.82;;;-0.20;99.90;;;;;;5071066;28;20049;-47
2022/03/18 04:09:47;;;;;;;40.22;16.50;;;0.10;99.90;;;;;;5071159;28;20044;-47
2022/03/18 04:12:13;;;;;;;38.90;15.23;;;-0.20;99.90;;;;;;5070997;28;20036;-46
2022/03/18 04:14:39;;;;;;;41.65;16.50;;;-0.40;99.90;;;;;;5071376;28;20567;-46
2022/03/18 04:17:05;;;;;;;48.25;17.85;;;-0.10;99.90;;;;;;5052585;28;20037;-48
2022/03/18 04:19:31;;;;;;;36.33;15.23;;;-0.30;99.90;;;;;;5070941;28;20104;-47
2022/03/18 04:21:56;;;;;;;36.47;17.23;;;-0.30;99.90;;;;;;5071007;28;20383;-47
2022/03/18 04:24:22;;;;;;;37.05;14.70;;;-0.20;99.90;;;;;;5070697;28;20047;-48
2022/03/18 04:26:48;;;;;;;40.45;15.95;;;-0.30;99.90;;;;;;5070983;28;20036;-46
2022/03/18 04:29:14;;;;;;;45.80;16.65;;;-0.30;99.90;;;;;;5070499;28;20662;-46
2022/03/18 04:31:40;;;;;;;43.58;16.55;;;-0.40;99.90;;;;;;5070710;28;20039;-46
2022/03/18 04:34:06;;;;;;;27.70;14.52;;;-0.40;99.90;;;;;;5070894;28;20040;-46
2022/03/18 04:36:32;;;;;;;35.83;14.23;;;-0.50;99.90;;;;;;5070145;28;20491;-46
2022/03/18 04:38:59;;;;;;;30.17;13.07;;;-0.40;99.90;;;;;;5070666;28;20051;-46
2022/03/18 04:41:25;;;;;;;29.42;13.50;;;-0.50;99.90;;;;;;5070153;28;20185;-46
2022/03/18 04:43:51;;;;;;;35.15;13.50;;;-0.50;99.90;;;;;;5070581;28;20115;-46
2022/03/18 04:46:17;;;;;;;34.38;15.00;;;-0.50;99.90;;;;;;5069924;28;20621;-46
2022/03/18 04:48:42;;;;;;;40.35;16.60;;;-0.40;99.90;;;;;;5070412;28;20083;-47
2022/03/18 04:51:08;;;;;;;33.92;14.07;;;-0.30;99.90;;;;;;5070241;28;20363;-45
2022/03/18 04:53:36;;;;;;;29.55;12.50;;;-0.60;99.90;;;;;;5069585;28;20052;-46
2022/03/18 04:56:01;;;;;;;33.97;14.55;;;-0.60;99.90;;;;;;5070277;28;20044;-47
2022/03/18 04:58:27;;;;;;;30.05;12.95;;;-0.70;99.90;;;;;;5069623;28;20055;-46
2022/03/18 05:00:53;;;;;;;34.10;14.82;;;-0.70;99.90;;;;;;5070046;28;20040;-46
2022/03/18 05:03:19;;;;;;;32.10;15.15;;;-0.50;99.90;;;;;;5070027;28;20052;-47
2022/03/18 05:05:44;;;;;;;36.47;12.98;;;-0.70;99.90;;;;;;5069821;28;20119;-46
2022/03/18 05:08:10;;;;;;;26.17;12.50;;;-0.50;99.90;;;;;;5070160;28;20032;-47
2022/03/18 05:10:37;;;;;;;32.53;13.27;;;-0.40;99.90;;;;;;5068945;28;20291;-46
2022/03/18 05:13:03;;;;;;;32.58;13.07;;;;;;;;;;5069859;28;20117;-46
2022/03/18 05:15:31;;;;;;;35.53;15.20;;;-0.40;99.90;;;;;;5069857;28;20047;-45
2022/03/18 05:17:57;;;;;;;38.58;15.80;;;-0.40;99.90;;;;;;5069507;28;20584;-45
2022/03/18 05:20:23;;;;;;;38.60;15.10;;;-0.40;99.90;;;;;;5063485;28;20538;-44
2022/03/18 05:22:51;;;;;;;31.40;13.88;;;-0.40;99.90;;;;;;5060560;28;20131;-50
2022/03/18 05:25:16;;;;;;;45.30;18.02;;;-0.30;99.90;;;;;;5068569;28;20746;-50
2022/03/18 05:27:44;;;;;;;42.70;19.05;;;-0.30;99.90;;;;;;5069081;28;20039;-52
2022/03/18 05:30:11;;;;;;;41.17;17.50;;;-0.40;99.90;;;;;;5051310;28;20072;-44
2022/03/18 05:32:37;;;;;;;39.53;15.90;;;-0.40;99.90;;;;;;5069257;28;20040;-45
2022/03/18 05:35:04;;;;;;;29.60;15.85;;;0.00;99.90;;;;;;5068928;28;20046;-48
2022/03/18 05:37:30;;;;;;;33.50;16.98;;;-0.40;99.90;;;;;;5069554;28;20040;-49
2022/03/18 05:39:56;;;;;;;42.00;18.70;;;-0.50;99.90;;;;;;5069663;28;20047;-45
2022/03/18 05:42:22;;;;;;;45.55;21.25;;;-0.40;99.90;;;;;;5069185;28;20055;-48
2022/03/18 05:44:47;;;;;;;42.08;21.33;;;-0.40;99.90;;;;;;5069476;28;20562;-47
2022/03/18 05:47:13;;;;;;;45.92;21.20;;;-0.30;99.90;;;;;;5069582;28;20044;-47
2022/03/18 05:49:39;;;;;;;39.92;20.65;;;-0.30;99.90;;;;;;5069542;28;20032;-46
2022/03/18 05:52:05;;;;;;;58.10;23.52;;;-0.20;99.90;;;;;;5069453;28;20032;-49
2022/03/18 05:54:30;;;;;;;50.42;21.45;;;-0.10;99.90;;;;;;5068756;28;20048;-48
2022/03/18 05:56:56;;;;;;;49.85;24.80;;;0.40;99.90;;;;;;5069450;28;20044;-47
2022/03/18 05:59:24;;;;;;;60.72;27.50;;;0.40;99.90;;;;;;5051508;28;20063;-51
2022/03/18 06:01:50;;;;;;;59.25;26.50;;;0.90;99.90;;;;;;5069058;28;20051;-50
2022/03/18 06:04:16;;;;;;;58.90;26.23;;;1.20;99.90;;;;;;5069059;28;20389;-51
2022/03/18 06:06:44;;;;;;;55.67;25.80;;;1.70;99.90;;;;;;5068538;28;20039;-49
2022/03/18 06:11:56;;;;;;;54.85;28.40;;;2.70;99.90;;;;;;5069191;28;20040;-44
2022/03/18 06:14:24;;;;;;;51.92;26.80;;;3.30;99.90;;;;;;5069668;28;20478;-44
2022/03/18 06:16:52;;;;;;;52.20;26.08;;;3.70;99.90;;;;;;5070132;28;20045;-44
2022/03/18 06:19:20;;;;;;;48.05;25.00;;;4.00;99.90;;;;;;5070508;28;20371;-45
2022/03/18 06:21:46;;;;;;;45.83;23.25;;;4.40;99.90;;;;;;5069818;28;20106;-44
2022/03/18 06:24:12;;;;;;;41.45;22.15;;;4.90;99.90;;;;;;5074030;28;20045;-43
2022/03/18 06:26:38;;;;;;;33.28;21.02;;;5.40;99.90;;;;;;5074546;28;20052;-44
2022/03/18 06:29:05;;;;;;;36.33;17.83;;;5.40;99.90;;;;;;5074093;28;20044;-46
2022/03/18 06:31:31;;;;;;;31.00;14.35;;;6.00;99.90;;;;;;5074298;28;20029;-44
2022/03/18 06:33:57;;;;;;;23.83;13.23;;;5.30;99.90;;;;;;5073773;28;20045;-44
2022/03/18 06:36:23;;;;;;;25.42;12.68;;;6.10;99.90;;;;;;5074347;28;20033;-45
2022/03/18 06:38:48;;;;;;;25.85;13.52;;;4.70;99.90;;;;;;5073938;28;20390;-45
2022/03/18 06:41:16;;;;;;;20.40;12.77;;;5.20;99.90;;;;;;5073832;28;20066;-45
2022/03/18 06:43:43;;;;;;;21.40;12.30;;;5.10;99.90;;;;;;5073640;28;20048;-45
2022/03/18 06:46:08;;;;;;;22.70;12.40;;;4.00;99.90;;;;;;5074107;28;20048;-45
2022/03/18 06:48:34;;;;;;;21.80;12.52;;;3.80;99.90;;;;;;5073473;28;20093;-45
2022/03/18 06:51:00;;;;;;;29.45;13.05;;;3.80;99.90;;;;;;5073925;28;20035;-44
2022/03/18 06:53:27;;;;;;;27.05;13.95;;;3.60;99.90;;;;;;5073431;28;20577;-44
2022/03/18 06:55:52;;;;;;;20.38;12.57;;;3.60;99.90;;;;;;5073620;28;20047;-45
2022/03/18 06:58:18;;;;;;;23.17;12.85;;;3.60;99.90;;;;;;5073627;28;20045;-45
2022/03/18 07:00:44;;;;;;;25.42;12.73;;;3.50;99.90;;;;;;5073046;28;20510;-44
2022/03/18 07:03:09;;;;;;;28.45;13.32;;;3.50;99.90;;;;;;5073277;28;20051;-45
2022/03/18 07:05:35;;;;;;;26.55;14.18;;;3.70;99.90;;;;;;5073374;28;20121;-44
2022/03/18 07:08:01;;;;;;;27.52;15.77;;;3.70;99.90;;;;;;5073456;28;20131;-44
2022/03/18 07:10:26;;;;;;;32.85;15.65;;;4.10;99.90;;;;;;5073380;28;20040;-46
2022/03/18 07:12:53;;;;;;;31.30;15.52;;;4.50;99.90;;;;;;5073034;28;20089;-44
2022/03/18 07:15:18;;;;;;;26.25;15.35;;;5.30;99.90;;;;;;5073476;28;20371;-44
2022/03/18 07:17:59;;;;;;;31.30;17.52;;;5.90;99.90;;;;;;5072860;28;20040;-46
2022/03/18 07:20:36;;;;;;;23.08;16.33;;;6.50;99.90;;;;;;5055510;28;20056;-46
2022/03/18 07:23:10;;;;;;;26.15;15.88;;;6.80;99.90;;;;;;5073163;28;20111;-44
2022/03/18 07:25:38;;;;;;;25.02;15.48;;;6.60;99.90;;;;;;5073152;28;20044;-45
2022/03/18 07:28:05;;;;;;;31.20;16.75;;;7.60;99.90;;;;;;5073446;28;20044;-46
2022/03/18 07:30:31;;;;;;;27.58;14.93;;;7.00;99.90;;;;;;5073382;28;20044;-45
2022/03/18 07:32:57;;;;;;;26.75;16.05;;;7.80;99.90;;;;;;5038273;28;20425;-46
2022/03/18 07:35:23;;;;;;;25.00;15.30;;;8.40;99.90;;;;;;5071883;28;20048;-45
2022/03/18 07:37:49;;;;;;;22.58;14.27;;;8.80;99.90;;;;;;5072815;28;20040;-45
2022/03/18 07:40:17;;;;;;;31.15;15.68;;;8.50;99.90;;;;;;5072755;28;20472;-45
2022/03/18 07:42:51;;;;;;;20.20;15.25;;;8.10;99.90;;;;;;5072645;28;20368;-45
2022/03/18 07:45:18;;;;;;;23.90;14.05;;;8.00;99.90;;;;;;5073426;28;20064;-45
2022/03/18 07:47:44;;;;;;;25.35;15.70;;;8.10;99.90;;;;;;5072577;28;20036;-46
2022/03/18 07:50:10;;;;;;;22.55;13.43;;;8.20;99.90;;;;;;5072783;28;20048;-46
2022/03/18 07:52:36;;;;;;;27.85;14.90;;;8.40;99.90;;;;;;5072310;28;20123;-45
2022/03/18 07:55:02;;;;;;;23.85;14.05;;;8.60;99.90;;;;;;5073131;28;20491;-45
2022/03/18 07:57:28;;;;;;;21.25;13.90;;;7.60;99.90;;;;;;5072226;28;20048;-45
2022/03/18 07:59:53;;;;;;;21.70;13.15;;;8.50;99.90;;;;;;5072147;28;20076;-45
2022/03/18 08:02:19;;;;;;;21.45;14.10;;;7.70;99.90;;;;;;5056051;28;20051;-45
2022/03/18 08:04:48;;;;;;;24.80;14.88;;;8.10;99.90;;;;;;5071342;28;20049;-45
2022/03/18 08:07:14;;;;;;;26.52;13.48;;;8.10;99.90;;;;;;5070976;28;20091;-46
2022/03/18 08:09:40;;;;;;;19.95;12.48;;;9.30;99.90;;;;;;5070758;28;20079;-45
2022/03/18 08:12:06;;;;;;;22.55;13.23;;;9.10;99.90;;;;;;5071627;28;20391;-44
2022/03/18 08:14:32;;;;;;;21.83;13.02;;;8.80;99.90;;;;;;5069372;28;20049;-44
2022/03/18 08:16:58;;;;;;;20.00;12.18;;;9.20;99.90;;;;;;5069363;28;20524;-45
2022/03/18 08:19:24;;;;;;;25.10;13.40;;;9.30;99.90;;;;;;5070255;28;20054;-45
2022/03/18 08:21:50;;;;;;;22.50;12.48;;;9.40;99.90;;;;;;5071622;28;20048;-45
2022/03/18 08:24:16;;;;;;;23.95;13.70;;;9.80;99.90;;;;;;5069685;28;20044;-46
2022/03/18 08:26:41;;;;;;;21.63;12.70;;;9.50;99.90;;;;;;5071487;28;20098;-45
2022/03/18 08:29:09;;;;;;;16.55;12.68;;;11.10;99.90;;;;;;5071662;28;20386;-45
2022/03/18 08:31:35;;;;;;;18.92;12.52;;;11.50;99.90;;;;;;5071725;28;20383;-48
2022/03/18 08:34:01;;;;;;;16.95;11.60;;;12.00;99.90;;;;;;5071478;28;20042;-45
2022/03/18 08:36:27;;;;;;;17.40;10.30;;;12.40;99.90;;;;;;5071497;28;20055;-45
2022/03/18 08:38:52;;;;;;;18.88;12.07;;;13.30;99.90;;;;;;5071536;28;20040;-46
2022/03/18 08:41:18;;;;;;;19.00;10.70;;;14.50;99.90;;;;;;5071203;28;20456;-46
2022/03/18 08:43:44;;;;;;;18.50;9.10;;;15.80;99.90;;;;;;5071330;28;20037;-47
2022/03/18 08:46:10;;;;;;;18.17;9.07;;;17.00;99.90;;;;;;5071493;28;20398;-46
2022/03/18 08:48:35;;;;;;;13.88;8.27;;;18.10;99.90;;;;;;5071206;28;20041;-46
2022/03/18 08:51:02;;;;;;;16.55;7.60;;;19.00;99.90;;;;;;5070953;28;20098;-46
2022/03/18 08:53:28;;;;;;;16.40;7.22;;;19.80;99.90;;;;;;5070855;28;20127;-46
2022/03/18 08:55:56;;;;;;;15.65;8.65;;;20.50;98.50;;;;;;5052538;28;20041;-46
2022/03/18 08:58:22;;;;;;;13.88;7.78;;;20.70;96.10;;;;;;5070966;28;20677;-47
2022/03/18 09:00:48;;;;;;;14.95;8.15;;;21.20;94.00;;;;;;5070548;28;20044;-46
2022/03/18 09:03:14;;;;;;;15.25;7.00;;;21.40;92.40;;;;;;5070747;28;20028;-45
2022/03/18 09:05:41;;;;;;;16.90;7.72;;;21.30;92.00;;;;;;5070973;28;20173;-47
2022/03/18 09:08:07;;;;;;;12.32;7.07;;;21.60;90.50;;;;;;5070488;28;20040;-47
2022/03/18 09:10:33;;;;;;;15.88;7.60;;;22.20;89.10;;;;;;5070955;28;20037;-49
2022/03/18 09:13:00;;;;;;;17.08;7.35;;;22.60;85.10;;;;;;5070335;28;20037;-46
2022/03/18 09:15:29;;;;;;;16.45;6.95;;;22.90;81.30;;;;;;5070367;28;20303;-48
2022/03/18 09:17:55;;;;;;;15.05;6.40;;;23.00;77.80;;;;;;5070474;28;20421;-46
2022/03/18 09:20:21;;;;;;;14.32;6.82;;;23.20;76.40;;;;;;5070815;28;20032;-48
2022/03/18 09:22:47;;;;;;;17.55;6.75;;;23.00;75.80;;;;;;5070094;28;20107;-46
2022/03/18 09:25:14;;;;;;;14.07;6.88;;;22.70;75.60;;;;;;5070445;28;20040;-46
2022/03/18 09:27:40;;;;;;;12.77;5.82;;;22.40;75.10;;;;;;5070724;28;20051;-46
2022/03/18 09:30:08;;;;;;;12.13;6.90;;;22.50;74.10;;;;;;5070513;28;20048;-46
2022/03/18 09:32:34;;;;;;;17.50;7.72;;;22.70;72.90;;;;;;5052357;28;20049;-46
2022/03/18 09:34:59;;;;;;;13.05;6.55;;;22.50;72.70;;;;;;5070493;28;20040;-47
2022/03/18 09:37:25;;;;;;;12.60;6.78;;;21.90;73.40;;;;;;5070321;28;20036;-46
2022/03/18 09:39:51;;;;;;;14.13;6.57;;;21.30;73.10;;;;;;5070360;28;20044;-46
2022/03/18 09:42:16;;;;;;;17.88;6.53;;;21.10;74.40;;;;;;5069981;28;20032;-46
2022/03/18 09:44:42;;;;;;;15.95;6.13;;;21.30;74.20;;;;;;5070231;28;20044;-47
2022/03/18 09:47:09;;;;;;;12.05;6.25;;;21.40;73.50;;;;;;5070249;28;20044;-47
2022/03/18 09:49:36;;;;;;;17.55;6.30;;;21.50;73.30;;;;;;5070375;28;20386;-46
2022/03/18 09:52:05;;;;;;;14.23;5.80;;;21.90;71.80;;;;;;5070032;28;20040;-45
2022/03/18 09:54:32;;;;;;;13.35;6.47;;;22.30;69.60;;;;;;5070020;28;20506;-47
2022/03/18 09:57:00;;;;;;;14.57;6.75;;;22.40;68.70;;;;;;5069601;28;20449;-46
2022/03/18 09:59:27;;;;;;;13.27;6.60;;;22.20;67.80;;;;;;5070333;28;20051;-46
2022/03/18 10:02:26;;;;;;;16.60;7.47;;;21.70;68.10;;;;;;5069886;28;20394;-47
2022/03/18 10:04:57;;;;;;;16.10;7.50;;;20.70;67.10;;;;;;5070502;28;20095;-46
2022/03/18 10:07:24;;;;;;;16.35;7.18;;;19.40;72.40;;;;;;5070521;28;20036;-46
2022/03/18 10:10:14;;;;;;;18.52;7.75;;;18.60;75.80;;;;;;5070167;28;20044;-46
2022/03/18 10:12:45;;;;;;;14.48;7.50;;;18.50;75.60;;;;;;5070442;28;20044;-46
2022/03/18 10:15:20;;;;;;;19.50;8.57;;;18.80;77.50;;;;;;5070280;28;20043;-46
2022/03/18 10:17:54;;;;;;;15.55;6.50;;;19.10;77.40;;;;;;5070494;28;20037;-48
2022/03/18 10:20:30;;;;;;;12.50;6.53;;;19.50;75.20;;;;;;5070464;28;20036;-47
2022/03/18 10:23:14;;;;;;;17.65;7.05;;;19.90;74.70;;;;;;5070141;28;20445;-46
2022/03/18 10:25:50;;;;;;;12.68;5.55;;;20.40;73.30;;;;;;5070268;28;20036;-46
2022/03/18 10:28:37;;;;;;;17.80;7.07;;;20.80;71.40;;;;;;5070630;28;20044;-46
2022/03/18 10:31:20;;;;;;;11.80;6.20;;;21.10;70.00;;;;;;5070525;28;20102;-47
2022/03/18 10:39:33;;;;;;;20.50;6.45;;;22.20;68.20;;;;;;5070441;28;20381;-46
2022/03/18 10:42:02;;;;;;;16.67;5.78;;;22.70;66.70;;;;;;5052329;28;20097;-47
2022/03/18 10:44:59;;;;;;;17.05;6.82;;;23.10;65.30;;;;;;5070677;28;20178;-46
2022/03/18 10:47:29;;;;;;;17.17;6.80;;;23.50;63.90;;;;;;5068690;28;20045;-47
2022/03/18 10:50:24;;;;;;;12.35;5.40;;;23.80;62.60;;;;;;5051771;28;20049;-46
2022/03/18 10:52:50;;;;;;;10.80;4.75;;;24.20;61.30;;;;;;5069806;28;20049;-46
2022/03/18 10:55:51;;;;;;;13.50;6.20;;;24.00;60.60;;;;;;5070435;28;20460;-46
2022/03/18 10:58:18;;;;;;;15.60;6.15;;;22.50;61.50;;;;;;5027649;28;20067;-46
2022/03/18 11:00:46;;;;;;;11.00;6.80;;;21.10;62.50;;;;;;5070948;28;20048;-46
2022/03/18 11:03:13;;;;;;;15.13;7.57;;;19.80;64.90;;;;;;5070982;28;20040;-46
2022/03/18 11:05:41;;;;;;;16.92;7.85;;;18.90;67.30;;;;;;5071120;28;20072;-45
2022/03/18 11:08:21;;;;;;;15.63;6.88;;;18.10;69.00;;;;;;5071510;28;20036;-45
2022/03/18 11:14:00;;;;;;;17.13;8.13;;;16.90;72.00;;;;;;5012050;28;20073;-45
2022/03/18 11:16:31;;;;;;;17.95;8.23;;;16.60;73.70;;;;;;5012139;28;20045;-46
2022/03/18 11:19:01;;;;;;;14.20;7.15;;;16.30;75.10;;;;;;5044858;28;20087;-45
2022/03/18 11:21:38;;;;;;;15.23;7.85;;;16.10;75.60;;;;;;5073754;28;20044;-46
2022/03/18 11:24:11;;;;;;;18.20;7.90;;;15.80;76.40;;;;;;5074061;28;20072;-46
2022/03/18 11:26:45;;;;;;;12.82;6.32;;;15.50;77.40;;;;;;5073592;28;20048;-48
2022/03/18 11:29:19;;;;;;;12.40;6.85;;;15.20;77.60;;;;;;5073451;28;20372;-45
2022/03/18 11:32:15;;;;;;;18.20;7.13;;;15.00;78.60;;;;;;5073686;28;20390;-46
2022/03/18 11:34:49;;;;;;;16.25;6.88;;;14.80;79.90;;;;;;5073256;28;20040;-45
2022/03/18 11:37:15;;;;;;;11.27;4.97;;;14.70;80.00;;;;;;5072909;28;20763;-45
2022/03/18 11:39:40;;;;;;;13.90;5.13;;;14.70;79.80;;;;;;5073120;28;20075;-47
2022/03/18 11:42:09;;;;;;;11.23;5.00;;;14.60;79.70;;;;;;5073171;28;20063;-46
2022/03/18 11:44:49;;;;;;;12.10;5.20;;;14.50;79.70;;;;;;5072898;28;20552;-46
2022/03/18 11:47:33;;;;;;;14.90;6.78;;;14.40;80.60;;;;;;5072708;28;20502;-45
2022/03/18 11:50:00;;;;;;;11.55;4.22;;;14.40;81.80;;;;;;5072730;28;20048;-46
2022/03/18 11:52:26;;;;;;;13.25;3.95;;;14.30;81.20;;;;;;5072643;28;20071;-46
2022/03/18 11:55:08;;;;;;;11.65;4.70;;;14.20;81.20;;;;;;5072624;28;20091;-45
2022/03/18 11:57:36;;;;;;;10.52;4.93;;;14.70;82.10;;;;;;5072983;28;20078;-46
2022/03/18 12:00:07;;;;;;;13.43;6.47;;;14.10;81.90;;;;;;5072891;28;20040;-49
2022/03/18 12:02:37;;;;;;;16.67;7.57;;;14.00;82.20;;;;;;5072734;28;20040;-45
2022/03/18 12:05:05;;;;;;;14.65;6.00;;;13.90;82.80;;;;;;5072820;28;20040;-46
2022/03/18 12:07:49;;;;;;;14.77;6.28;;;13.90;83.40;;;;;;5072195;28;20041;-45
2022/03/18 12:10:30;;;;;;;15.52;5.65;;;13.90;83.40;;;;;;5072225;28;20044;-46
2022/03/18 12:12:57;;;;;;;11.35;5.53;;;13.90;83.40;;;;;;5072481;28;20075;-45
2022/03/18 12:15:22;;;;;;;14.10;5.28;;;13.80;83.30;;;;;;5072129;28;20391;-45
2022/03/18 12:17:53;;;;;;;18.17;6.22;;;13.90;84.10;;;;;;5072255;28;20048;-47
2022/03/18 12:20:31;;;;;;;13.20;5.53;;;14.20;84.40;;;;;;5072150;28;20048;-45
2022/03/18 12:23:05;;;;;;;14.63;5.53;;;14.00;85.10;;;;;;5072341;28;20105;-45
2022/03/18 12:25:31;;;;;;;14.30;5.78;;;14.00;84.30;;;;;;5072387;28;20111;-47
2022/03/18 12:27:57;;;;;;;11.30;5.18;;;14.00;84.70;;;;;;5072918;28;20762;-45
2022/03/18 12:30:25;;;;;;;11.63;5.47;;;14.30;84.90;;;;;;5072422;28;20040;-44
2022/03/18 12:32:53;;;;;;;12.60;5.25;;;14.10;85.00;;;;;;5071846;28;20518;-45
2022/03/18 12:35:28;;;;;;;18.73;5.53;;;14.20;85.40;;;;;;5072224;28;20075;-45
2022/03/18 12:38:13;;;;;;;18.70;4.80;;;14.30;84.50;;;;;;5072594;28;20064;-45
2022/03/18 12:41:02;;;;;;;13.50;5.45;;;14.60;84.60;;;;;;5072161;28;20044;-46
2022/03/18 12:43:31;;;;;;;16.77;4.80;;;14.40;84.70;;;;;;5071240;28;20989;-45
2022/03/18 12:45:59;;;;;;;17.45;5.25;;;14.50;84.00;;;;;;5072466;28;20044;-46
2022/03/18 12:48:24;;;;;;;18.02;6.03;;;14.50;83.30;;;;;;5071884;28;20475;-45
2022/03/18 12:50:55;;;;;;;15.85;5.72;;;14.50;83.30;;;;;;5071889;28;20050;-46
2022/03/18 12:53:22;;;;;;;12.13;5.45;;;14.50;83.40;;;;;;5072011;28;20101;-49
2022/03/18 12:55:54;;;;;;;10.32;4.47;;;14.60;83.80;;;;;;5071806;28;20052;-46
2022/03/18 12:58:22;;;;;;;13.70;4.70;;;14.70;82.80;;;;;;5072190;28;20044;-45